Time;durP1;ratioP1;P1;durP2;ratioP2;P2;SDS_P1;SDS_P2;PMS_P1;PMS_P2;Temp;Humidity;BMP_temperature;BMP_pressure;BME280_temperature;BME280_humidity;BME280_pressure;Samples;Min_cycle;Max_cycle;Signal;HPM_P1;HPM_P2
2021/05/25 00:01:04;;;;;;;2.67;0.95;;;;;;;;;;5010381;28;20411;-86
2021/05/25 00:03:29;;;;;;;10.43;0.82;;;;;;;;;;5010433;28;20483;-86
2021/05/25 00:05:54;;;;;;;4.53;0.85;;;;;;;;;;5010189;28;20100;-86
2021/05/25 00:08:19;;;;;;;5.97;0.98;;;;;;;;;;5026736;28;20022;-85
2021/05/25 00:10:44;;;;;;;4.07;1.08;;;;;;;;;;5010656;28;20022;-86
2021/05/25 00:13:10;;;;;;;3.35;1.20;;;;;;;;;;5011832;28;20030;-84
2021/05/25 00:15:35;;;;;;;3.20;1.00;;;;;;;;;;5010058;28;20026;-86
2021/05/25 00:18:02;;;;;;;2.70;1.03;;;;;;;;;;5010152;28;20040;-85
2021/05/25 00:20:27;;;;;;;4.40;1.05;;;;;;;;;;5010245;28;20072;-86
2021/05/25 00:22:53;;;;;;;1.98;1.05;;;;;;;;;;5009804;28;20026;-83
2021/05/25 00:25:19;;;;;;;5.40;0.90;;;;;;;;;;5009598;28;20035;-84
2021/05/25 00:27:45;;;;;;;2.85;1.00;;;;;;;;;;5010996;28;20051;-84
2021/05/25 00:30:11;;;;;;;4.57;1.10;;;;;;;;;;5032728;28;20056;-83
2021/05/25 00:32:36;;;;;;;1.92;0.98;;;;;;;;;;5009544;28;20018;-84
2021/05/25 00:35:02;;;;;;;4.97;1.13;;;;;;;;;;5010739;28;20070;-84
2021/05/25 00:37:27;;;;;;;4.78;0.90;;;;;;;;;;5010793;28;20480;-84
2021/05/25 00:39:53;;;;;;;2.22;0.70;;;;;;;;;;5010619;28;20061;-84
2021/05/25 00:42:19;;;;;;;2.25;0.80;;;;;;;;;;5010531;28;20034;-83
2021/05/25 00:44:44;;;;;;;2.63;1.08;;;;;;;;;;5010754;28;20014;-83
2021/05/25 00:47:09;;;;;;;2.05;0.77;;;;;;;;;;5010429;28;20013;-84
2021/05/25 00:49:34;;;;;;;4.75;0.90;;;;;;;;;;5017161;28;20029;-85
2021/05/25 00:52:00;;;;;;;3.15;0.60;;;;;;;;;;5013459;28;20032;-86
2021/05/25 00:54:25;;;;;;;1.33;0.70;;;;;;;;;;5009668;28;20034;-85
2021/05/25 00:56:50;;;;;;;2.50;0.68;;;;;;;;;;5009603;28;20481;-85
2021/05/25 00:59:15;;;;;;;2.30;0.70;;;;;;;;;;5009154;28;20030;-86
2021/05/25 01:01:40;;;;;;;3.17;0.70;;;;;;;;;;5010960;28;20117;-85
2021/05/25 01:04:06;;;;;;;1.90;0.60;;;;;;;;;;5013432;28;20021;-86
2021/05/25 01:06:31;;;;;;;3.83;0.60;;;;;;;;;;5021398;28;20014;-85
2021/05/25 01:09:00;;;;;;;3.85;0.73;;;;;;;;;;5009138;28;20112;-85
2021/05/25 01:11:26;;;;;;;2.85;0.80;;;;;;;;;;5025883;28;20137;-86
2021/05/25 01:13:54;;;;;;;2.25;0.80;;;;;;;;;;5011642;28;20117;-85
2021/05/25 01:16:22;;;;;;;3.95;0.80;;;;;;;;;;5010440;28;20426;-86
2021/05/25 01:18:48;;;;;;;1.88;0.65;;;;;;;;;;5010510;28;20022;-85
2021/05/25 01:21:13;;;;;;;3.88;0.73;;;;;;;;;;5010293;28;20062;-85
2021/05/25 01:23:39;;;;;;;1.85;0.50;;;;;;;;;;5017044;28;20014;-85
2021/05/25 01:26:05;;;;;;;1.83;0.70;;;;;;;;;;5010574;28;20014;-85
2021/05/25 01:28:30;;;;;;;2.75;0.98;;;;;;;;;;5010555;28;20101;-86
2021/05/25 01:30:56;;;;;;;2.58;0.80;;;;;;;;;;5009258;28;20014;-85
2021/05/25 01:33:22;;;;;;;1.83;0.70;;;;;;;;;;5010240;28;20026;-86
2021/05/25 01:35:47;;;;;;;2.05;0.47;;;;;;;;;;5010454;28;20407;-86
2021/05/25 01:38:14;;;;;;;1.52;0.60;;;;;;;;;;5010243;28;20014;-85
2021/05/25 01:40:40;;;;;;;1.77;0.50;;;;;;;;;;5010469;28;20541;-86
2021/05/25 01:43:06;;;;;;;1.98;0.60;;;;;;;;;;5025705;28;20120;-84
2021/05/25 01:45:32;;;;;;;4.22;0.65;;;;;;;;;;5009635;28;20014;-84
2021/05/25 01:47:59;;;;;;;2.05;0.95;;;;;;;;;;5008725;28;20026;-84
2021/05/25 01:50:25;;;;;;;5.30;0.70;;;;;;;;;;5009576;28;20017;-84
2021/05/25 01:52:51;;;;;;;1.23;0.60;;;;;;;;;;5008479;28;20014;-83
2021/05/25 01:55:43;;;;;;;3.60;0.50;;;;;;;;;;5010309;28;20018;-84
2021/05/25 01:58:08;;;;;;;5.85;0.70;;;;;;;;;;5007289;28;20370;-84
2021/05/25 02:00:34;;;;;;;4.18;0.70;;;;;;;;;;5009901;28;20006;-84
2021/05/25 02:02:59;;;;;;;5.60;0.95;;;;;;;;;;5009423;28;20037;-84
2021/05/25 02:05:25;;;;;;;0.73;0.57;;;;;;;;;;5017066;28;20133;-83
2021/05/25 02:07:51;;;;;;;9.50;1.60;;;;;;;;;;5008371;28;20041;-84
2021/05/25 02:10:23;;;;;;;2.20;0.50;;;;;;;;;;5009677;28;20029;-84
2021/05/25 02:12:49;;;;;;;0.95;0.50;;;;;;;;;;5012883;28;20105;-83
2021/05/25 02:15:14;;;;;;;3.13;0.65;;;;;;;;;;5011448;28;20114;-84
2021/05/25 02:17:39;;;;;;;5.22;0.57;;;;;;;;;;5011721;28;20028;-84
2021/05/25 02:20:05;;;;;;;2.55;0.90;;;;;;;;;;5011698;28;20044;-83
2021/05/25 02:22:30;;;;;;;3.50;0.70;;;;;;;;;;5011190;28;20025;-83
2021/05/25 02:24:55;;;;;;;2.20;0.70;;;;;;;;;;5011704;28;20018;-84
2021/05/25 02:27:20;;;;;;;1.40;0.60;;;;;;;;;;5012766;28;20413;-83
2021/05/25 02:29:45;;;;;;;2.95;0.77;;;;;;;;;;5013086;28;20018;-84
2021/05/25 02:32:11;;;;;;;7.70;0.80;;;;;;;;;;5011610;28;20029;-83
2021/05/25 02:34:36;;;;;;;4.05;1.08;;;;;;;;;;5012625;28;20461;-84
2021/05/25 02:37:01;;;;;;;1.25;0.70;;;;;;;;;;5011561;28;20022;-84
2021/05/25 02:39:26;;;;;;;1.98;0.60;;;;;;;;;;5011393;28;20040;-84
2021/05/25 02:41:51;;;;;;;2.55;0.57;;;;;;;;;;5012615;28;20483;-83
2021/05/25 02:44:16;;;;;;;2.60;0.70;;;;;;;;;;5027706;28;20079;-84
2021/05/25 02:46:42;;;;;;;2.55;0.75;;;;;;;;;;5011456;28;20066;-83
2021/05/25 02:49:07;;;;;;;3.63;0.80;;;;;;;;;;5012306;28;20454;-84
2021/05/25 02:51:32;;;;;;;17.98;2.20;;;;;;;;;;5009268;28;20057;-84
2021/05/25 02:53:57;;;;;;;2.85;0.77;;;;;;;;;;5009566;28;20082;-84
2021/05/25 02:56:22;;;;;;;3.23;0.80;;;;;;;;;;5010745;28;20371;-84
2021/05/25 02:58:48;;;;;;;4.05;0.90;;;;;;;;;;5026205;28;20037;-82
2021/05/25 03:01:13;;;;;;;1.45;0.70;;;;;;;;;;5009699;28;20018;-81
2021/05/25 03:03:38;;;;;;;2.95;0.85;;;;;;;;;;5010570;28;20093;-82
2021/05/25 03:06:03;;;;;;;2.65;0.80;;;;;;;;;;5009450;28;20030;-82
2021/05/25 03:08:29;;;;;;;4.82;0.85;;;;;;;;;;5009298;28;20511;-81
2021/05/25 03:10:54;;;;;;;3.53;0.65;;;;;;;;;;5009302;28;20100;-81
2021/05/25 03:13:19;;;;;;;5.05;0.95;;;;;;;;;;5008803;28;20440;-82
2021/05/25 03:15:46;;;;;;;5.97;0.80;;;;;;;;;;5023093;28;20032;-82
2021/05/25 03:18:12;;;;;;;7.53;0.95;;;;;;;;;;5030263;28;20025;-81
2021/05/25 03:20:38;;;;;;;3.30;1.00;;;;;;;;;;5010767;28;20017;-80
2021/05/25 03:23:04;;;;;;;5.35;1.10;;;;;;;;;;5010543;28;20165;-81
2021/05/25 03:25:30;;;;;;;4.05;0.90;;;;;;;;;;5011502;28;20022;-81
2021/05/25 03:27:55;;;;;;;5.53;1.00;;;;;;;;;;5028207;28;20014;-81
2021/05/25 03:30:22;;;;;;;4.72;1.15;;;;;;;;;;5010172;28;20033;-81
2021/05/25 03:32:47;;;;;;;1.90;0.90;;;;;;;;;;5010429;28;20060;-81
2021/05/25 03:35:14;;;;;;;3.90;1.20;;;;;;;;;;5011749;28;20056;-81
2021/05/25 03:37:39;;;;;;;3.17;1.08;;;;;;;;;;5010117;28;20021;-81
2021/05/25 03:40:06;;;;;;;6.93;1.40;;;;;;;;;;5026704;28;20024;-81
2021/05/25 03:42:31;;;;;;;3.23;1.30;;;;;;;;;;5009991;28;20447;-81
2021/05/25 03:44:57;;;;;;;9.83;1.23;;;;;;;;;;5010424;28;20105;-81
2021/05/25 03:47:24;;;;;;;4.68;1.30;;;;;;;;;;5010503;28;20022;-81
2021/05/25 03:49:50;;;;;;;8.33;1.40;;;;;;;;;;5010068;28;20046;-81
2021/05/25 03:52:15;;;;;;;6.20;1.40;;;;;;;;;;5011904;28;20018;-81
2021/05/25 03:55:01;;;;;;;8.23;1.73;;;;;;;;;;5009893;28;20018;-81
2021/05/25 03:59:54;;;;;;;7.53;2.00;;;;;;;;;;5011116;28;20610;-81
2021/05/25 04:02:20;;;;;;;6.80;1.87;;;;;;;;;;5011349;28;20047;-80
2021/05/25 04:04:45;;;;;;;10.57;1.47;;;;;;;;;;5009931;28;20063;-80
2021/05/25 04:07:11;;;;;;;4.17;1.10;;;;;;;;;;5011499;28;20022;-80
2021/05/25 04:09:36;;;;;;;5.53;1.00;;;;;;;;;;5028623;28;20025;-81
2021/05/25 04:12:01;;;;;;;5.37;1.23;;;;;;;;;;5012376;28;20022;-80
2021/05/25 04:14:26;;;;;;;4.90;1.20;;;;;;;;;;5011185;28;20075;-81
2021/05/25 04:16:51;;;;;;;5.30;1.53;;;;;;;;;;5011306;28;20029;-80
2021/05/25 04:19:16;;;;;;;3.50;1.93;;;;;;;;;;5010024;28;20441;-80
2021/05/25 04:21:42;;;;;;;4.90;1.80;;;;;;;;;;5009403;28;20034;-80
2021/05/25 04:24:07;;;;;;;3.20;1.90;;;;;;;;;;5011090;28;20014;-80
2021/05/25 04:26:32;;;;;;;3.87;1.80;;;;;;;;;;5009821;28;20018;-80
2021/05/25 04:28:58;;;;;;;9.63;1.90;;;;;;;;;;5009764;28;20033;-81
2021/05/25 04:31:23;;;;;;;5.80;1.50;;;;;;;;;;5010825;28;20643;-80
2021/05/25 04:33:49;;;;;;;2.70;1.10;;;;;;;;;;5009011;28;20113;-81
2021/05/25 04:36:16;;;;;;;2.43;1.40;;;;;;;;;;5009950;28;20541;-80
2021/05/25 04:38:41;;;;;;;5.00;1.53;;;;;;;;;;5010444;28;20014;-80
2021/05/25 04:41:06;;;;;;;4.60;1.20;;;;;;;;;;5009323;28;20033;-80
2021/05/25 04:43:31;;;;;;;2.43;1.20;;;;;;;;;;5010640;28;20048;-80
2021/05/25 04:45:56;;;;;;;3.70;1.10;;;;;;;;;;5009227;28;20025;-81
2021/05/25 04:48:22;;;;;;;3.13;1.27;;;;;;;;;;5009356;28;20033;-80
2021/05/25 04:50:47;;;;;;;6.80;1.40;;;;;;;;;;5009029;28;20064;-79
2021/05/25 04:53:12;;;;;;;3.73;0.90;;;;;;;;;;5008977;28;20029;-80
2021/05/25 04:55:38;;;;;;;4.83;1.20;;;;;;;;;;5010410;28;20496;-79
2021/05/25 04:58:04;;;;;;;2.17;0.90;;;;;;;;;;5009321;28;20022;-80
2021/05/25 05:00:29;;;;;;;3.23;1.10;;;;;;;;;;5011461;28;20457;-80
2021/05/25 05:02:55;;;;;;;1.17;0.67;;;;;;;;;;5014308;28;20043;-80
2021/05/25 05:05:21;;;;;;;4.23;0.90;;;;;;;;;;5023118;28;20467;-80
2021/05/25 05:07:47;;;;;;;5.60;0.73;;;;;;;;;;5008968;28;20029;-80
2021/05/25 05:10:12;;;;;;;1.90;0.70;;;;;;;;;;5008776;28;20125;-79
2021/05/25 05:12:38;;;;;;;1.80;0.90;;;;;;;;;;5009015;28;20053;-80
2021/05/25 05:15:04;;;;;;;1.17;0.60;;;;;;;;;;5025325;28;20033;-80
2021/05/25 05:17:29;;;;;;;1.83;0.63;;;;;;;;;;5010305;28;20086;-82
2021/05/25 05:19:55;;;;;;;1.10;0.60;;;;;;;;;;5025321;28;20533;-83
2021/05/25 05:22:20;;;;;;;2.00;0.40;;;;;;;;;;5014127;28;20112;-82
2021/05/25 05:24:46;;;;;;;0.70;0.40;;;;;;;;;;5010317;28;20026;-82
2021/05/25 05:27:11;;;;;;;0.83;0.50;;;;;;;;;;5008696;28;20025;-82
2021/05/25 05:29:37;;;;;;;0.50;0.40;;;;;;;;;;5009917;28;20505;-82
2021/05/25 05:32:02;;;;;;;0.60;0.50;;;;;;;;;;5008483;28;20101;-82
2021/05/25 05:34:27;;;;;;;2.97;0.47;;;;;;;;;;5009757;28;20477;-82
2021/05/25 05:36:53;;;;;;;0.93;0.60;;;;;;;;;;5008336;28;20030;-82
2021/05/25 05:39:18;;;;;;;1.53;0.70;;;;;;;;;;5009528;28;20466;-82
2021/05/25 05:41:43;;;;;;;3.73;1.00;;;;;;;;;;5009618;28;20071;-82
2021/05/25 05:44:08;;;;;;;4.83;0.90;;;;;;;;;;5008495;28;20010;-82
2021/05/25 05:46:34;;;;;;;2.47;0.80;;;;;;;;;;5007579;28;20470;-82
2021/05/25 05:48:59;;;;;;;2.10;1.00;;;;;;;;;;5009490;28;20025;-82
2021/05/25 05:51:24;;;;;;;2.33;1.00;;;;;;;;;;5023191;28;20140;-83
2021/05/25 05:53:50;;;;;;;2.07;0.80;;;;;;;;;;5008304;28;20047;-82
2021/05/25 05:56:18;;;;;;;3.00;0.90;;;;;;;;;;5022712;28;20041;-82
2021/05/25 05:58:44;;;;;;;3.47;0.90;;;;;;;;;;5008019;28;20513;-82
2021/05/25 06:01:10;;;;;;;2.20;0.93;;;;;;;;;;5013752;28;20093;-82
2021/05/25 06:03:35;;;;;;;2.73;1.10;;;;;;;;;;5022115;28;20049;-82
2021/05/25 06:06:00;;;;;;;2.93;1.27;;;;;;;;;;5053232;28;20040;-82
2021/05/25 06:08:25;;;;;;;2.77;1.63;;;;;;;;;;5009913;28;20014;-82
2021/05/25 06:10:51;;;;;;;4.87;2.20;;;;;;;;;;5009274;28;20037;-81
2021/05/25 06:13:17;;;;;;;4.97;3.17;;;;;;;;;;5082695;28;20027;-81
2021/05/25 06:15:43;;;;;;;6.23;3.07;;;;;;;;;;5009952;28;20416;-81
2021/05/25 06:18:08;;;;;;;8.63;4.00;;;;;;;;;;5016753;28;20025;-82
2021/05/25 06:20:33;;;;;;;5.77;4.33;;;;;;;;;;5008610;28;20092;-82
2021/05/25 06:22:59;;;;;;;7.87;4.90;;;;;;;;;;5025227;28;20101;-82
2021/05/25 06:25:24;;;;;;;11.13;5.00;;;;;;;;;;5007763;28;20018;-82
2021/05/25 06:27:49;;;;;;;15.63;5.13;;;;;;;;;;5009399;28;20049;-81
2021/05/25 06:30:14;;;;;;;6.17;4.83;;;;;;;;;;5008787;28;20393;-81
2021/05/25 06:32:40;;;;;;;7.83;5.37;;;;;;;;;;5027294;28;20021;-82
2021/05/25 06:35:05;;;;;;;8.77;5.17;;;;;;;;;;5037906;28;20108;-81
2021/05/25 06:37:31;;;;;;;7.40;4.67;;;;;;;;;;5008976;28;20029;-81
2021/05/25 06:39:56;;;;;;;7.40;4.30;;;;;;;;;;5008174;28;20481;-81
2021/05/25 06:42:21;;;;;;;7.10;4.50;;;;;;;;;;5007518;28;20030;-81
2021/05/25 06:44:46;;;;;;;7.13;3.93;;;;;;;;;;5024137;28;20049;-81
2021/05/25 06:47:11;;;;;;;5.67;3.97;;;;;;;;;;5009075;28;20044;-81
2021/05/25 06:49:39;;;;;;;7.88;4.20;;;;;;;;;;5009415;28;20018;-81
2021/05/25 06:52:04;;;;;;;5.90;4.13;;;;;;;;;;5009148;28;20029;-81
2021/05/25 06:54:32;;;;;;;8.37;4.23;;;;;;;;;;5008115;28;20133;-81
2021/05/25 06:56:57;;;;;;;7.10;4.63;;;;;;;;;;5008785;28;20025;-81
2021/05/25 06:59:22;;;;;;;11.17;4.53;;;;;;;;;;5011926;28;20029;-81
2021/05/25 07:01:47;;;;;;;5.57;4.13;;;;;;;;;;5029940;28;20030;-81
2021/05/25 07:04:13;;;;;;;8.13;4.03;;;;;;;;;;5055135;28;20061;-81
2021/05/25 07:06:38;;;;;;;6.43;4.15;;;;;;;;;;5030781;28;20017;-82
2021/05/25 07:09:03;;;;;;;6.30;3.70;;;;;;;;;;5012143;28;20033;-81
2021/05/25 07:11:29;;;;;;;6.10;4.03;;;;;;;;;;5013055;28;20034;-82
2021/05/25 07:13:54;;;;;;;5.70;3.17;;;;;;;;;;5012087;28;20033;-81
2021/05/25 07:16:19;;;;;;;6.85;3.28;;;;;;;;;;5012660;28;20060;-82
2021/05/25 07:18:44;;;;;;;5.75;2.70;;;;;;;;;;5010155;28;20373;-81
2021/05/25 07:21:09;;;;;;;6.40;2.83;;;;;;;;;;5012164;28;20415;-81
2021/05/25 07:23:35;;;;;;;3.55;2.50;;;;;;;;;;5010549;28;20171;-81
2021/05/25 07:26:01;;;;;;;4.15;3.15;;;;;;;;;;5011376;28;20033;-81
2021/05/25 07:28:26;;;;;;;6.13;3.28;;;;;;;;;;5031639;28;20022;-81
2021/05/25 07:30:51;;;;;;;4.20;3.13;;;;;;;;;;5039204;28;20023;-81
2021/05/25 07:33:17;;;;;;;4.87;3.47;;;;;;;;;;5054813;28;20029;-81
2021/05/25 07:35:42;;;;;;;7.40;3.63;;;;;;;;;;5011674;28;20448;-81
2021/05/25 07:38:07;;;;;;;7.78;3.75;;;;;;;;;;5011955;28;20138;-81
2021/05/25 07:40:32;;;;;;;14.60;4.80;;;;;;;;;;5011004;28;20026;-82
2021/05/25 07:42:57;;;;;;;9.20;4.17;;;;;;;;;;5010294;28;20121;-81
2021/05/25 07:45:23;;;;;;;11.60;4.82;;;;;;;;;;5011618;28;20037;-81
2021/05/25 07:47:48;;;;;;;11.47;5.77;;;;;;;;;;5010203;28;20029;-81
2021/05/25 07:50:14;;;;;;;8.75;5.70;;;;;;;;;;5011375;28;20034;-82
2021/05/25 07:52:46;;;;;;;10.65;6.15;;;;;;;;;;5020164;28;20026;-82
2021/05/25 07:55:12;;;;;;;11.13;6.65;;;;;;;;;;5011693;28;20026;-81
2021/05/25 07:57:38;;;;;;;13.87;7.07;;;;;;;;;;5011713;28;20392;-81
2021/05/25 08:00:11;;;;;;;10.48;6.18;;;;;;;;;;5009651;28;20738;-82
2021/05/25 08:02:36;;;;;;;11.15;6.63;;;;;;;;;;5011943;28;20074;-81
2021/05/25 08:05:02;;;;;;;13.10;6.88;;;;;;;;;;5019754;28;20414;-79
2021/05/25 08:07:27;;;;;;;11.63;5.68;;;;;;;;;;5011138;28;20024;-81
2021/05/25 08:09:52;;;;;;;12.02;5.55;;;;;;;;;;5010220;28;20107;-82
2021/05/25 08:12:17;;;;;;;13.82;5.72;;;;;;;;;;5024866;28;20039;-81
2021/05/25 08:14:43;;;;;;;8.75;5.25;;;;;;;;;;5046683;28;20503;-81
2021/05/25 08:17:19;;;;;;;11.13;5.25;;;;;;;;;;5009709;28;20542;-82
2021/05/25 08:19:46;;;;;;;15.63;5.47;;;;;;;;;;5009782;28;20048;-81
2021/05/25 08:22:12;;;;;;;14.77;5.20;;;;;;;;;;5012318;28;20014;-81
2021/05/25 08:24:37;;;;;;;10.07;4.90;;;;;;;;;;5025348;28;20407;-82
2021/05/25 08:27:02;;;;;;;12.40;5.43;;;;;;;;;;5014861;28;20437;-82
2021/05/25 08:29:28;;;;;;;17.65;5.45;;;;;;;;;;5010716;28;20033;-82
2021/05/25 08:31:53;;;;;;;11.68;5.18;;;;;;;;;;5010884;28;20090;-81
2021/05/25 08:34:18;;;;;;;10.73;5.10;;;;;;;;;;5014104;28;20116;-82
2021/05/25 08:36:43;;;;;;;16.58;6.40;;;;;;;;;;5029784;28;20372;-81
2021/05/25 08:39:08;;;;;;;12.18;6.30;;;;;;;;;;5045802;28;20171;-82
2021/05/25 08:41:35;;;;;;;14.15;6.00;;;;;;;;;;5010487;28;20018;-82
2021/05/25 08:44:01;;;;;;;13.85;6.30;;;;;;;;;;5010717;28;20022;-82
2021/05/25 08:46:26;;;;;;;13.90;6.20;;;;;;;;;;5030265;28;20026;-82
2021/05/25 08:48:52;;;;;;;15.02;6.72;;;;;;;;;;5014395;28;20020;-82
2021/05/25 08:51:17;;;;;;;10.82;6.13;;;;;;;;;;4996818;28;20053;-82
2021/05/25 08:53:42;;;;;;;15.70;7.80;;;;;;;;;;5010702;28;20108;-82
2021/05/25 08:56:07;;;;;;;14.57;6.53;;;;;;;;;;5050431;28;20051;-82
2021/05/25 08:58:33;;;;;;;14.32;7.15;;;;;;;;;;5010846;28;20022;-81
2021/05/25 09:00:58;;;;;;;12.40;6.53;;;;;;;;;;5025441;28;20109;-82
2021/05/25 09:03:24;;;;;;;19.17;8.10;;;;;;;;;;5009781;28;20010;-81
2021/05/25 09:05:53;;;;;;;20.23;7.75;;;;;;;;;;5012342;28;20014;-81
2021/05/25 09:08:19;;;;;;;17.17;7.57;;;;;;;;;;5023129;28;20023;-82
2021/05/25 09:10:47;;;;;;;20.55;7.15;;;;;;;;;;5043529;28;20022;-82
2021/05/25 09:13:18;;;;;;;14.57;7.10;;;;;;;;;;5026055;28;20021;-82
2021/05/25 09:15:46;;;;;;;15.43;7.30;;;;;;;;;;5071605;28;20021;-82
2021/05/25 09:18:15;;;;;;;18.50;8.10;;;;;;;;;;5009304;28;20412;-82
2021/05/25 09:20:45;;;;;;;13.57;8.40;;;;;;;;;;5022040;28;20022;-82
2021/05/25 09:23:12;;;;;;;12.70;7.30;;;;;;;;;;5008846;28;20405;-82
2021/05/25 09:26:08;;;;;;;16.83;6.95;;;;;;;;;;5036608;28;20029;-82
2021/05/25 09:28:33;;;;;;;16.83;6.78;;;;;;;;;;5011752;28;20022;-82
2021/05/25 09:30:59;;;;;;;19.73;8.45;;;;;;;;;;5008581;28;20176;-83
2021/05/25 09:33:24;;;;;;;18.42;7.13;;;;;;;;;;5051065;28;20031;-82
2021/05/25 09:35:50;;;;;;;14.18;7.60;;;;;;;;;;5042794;28;20036;-82
2021/05/25 09:38:15;;;;;;;15.07;6.22;;;;;;;;;;5102468;28;20471;-82
2021/05/25 09:40:42;;;;;;;17.60;6.07;;;;;;;;;;5029136;28;20027;-83
2021/05/25 09:43:08;;;;;;;13.32;6.20;;;;;;;;;;5032449;28;20018;-82
2021/05/25 09:45:34;;;;;;;14.82;6.10;;;;;;;;;;5010332;28;20028;-82
2021/05/25 09:48:02;;;;;;;12.60;5.47;;;;;;;;;;5009945;28;20018;-82
2021/05/25 09:50:27;;;;;;;16.67;6.07;;;;;;;;;;5034378;28;20025;-82
2021/05/25 09:53:05;;;;;;;12.48;6.10;;;;;;;;;;5009258;28;20021;-82
2021/05/25 09:55:31;;;;;;;13.18;5.00;;;;;;;;;;5009737;28;20381;-82
2021/05/25 09:57:57;;;;;;;9.77;3.90;;;;;;;;;;5008358;28;20026;-82
2021/05/25 10:00:23;;;;;;;10.35;4.13;;;;;;;;;;5009623;28;20101;-82
2021/05/25 10:03:02;;;;;;;11.98;4.50;;;;;;;;;;5009930;28;20052;-82
2021/05/25 10:05:28;;;;;;;10.85;4.70;;;;;;;;;;5014464;28;20028;-82
2021/05/25 10:07:53;;;;;;;10.07;2.70;;;;;;;;;;5016682;28;20465;-82
2021/05/25 10:10:19;;;;;;;10.27;3.10;;;;;;;;;;5009474;28;20066;-82
2021/05/25 10:12:44;;;;;;;13.00;3.00;;;;;;;;;;5008512;28;20082;-82
2021/05/25 10:15:11;;;;;;;6.70;3.40;;;;;;;;;;5009510;28;20030;-83
2021/05/25 10:20:02;;;;;;;5.63;2.15;;;;;;;;;;5009623;28;20618;-83
2021/05/25 10:22:28;;;;;;;7.35;2.97;;;;;;;;;;5009522;28;20044;-82
2021/05/25 10:24:54;;;;;;;7.53;2.42;;;;;;;;;;5012969;28;20016;-83
2021/05/25 10:27:19;;;;;;;9.40;2.38;;;;;;;;;;5009292;28;20102;-83
2021/05/25 10:29:44;;;;;;;7.13;2.20;;;;;;;;;;5010131;28;20037;-83
2021/05/25 10:32:19;;;;;;;9.23;2.38;;;;;;;;;;5016708;28;20349;-82
2021/05/25 10:34:44;;;;;;;2.90;1.20;;;;;;;;;;5011493;28;20017;-82
2021/05/25 10:37:13;;;;;;;2.45;0.93;;;;;;;;;;5027693;28;20025;-82
2021/05/25 10:39:39;;;;;;;8.43;1.40;;;;;;;;;;5026154;28;20030;-82
2021/05/25 10:42:20;;;;;;;5.20;2.13;;;;;;;;;;5034563;28;20083;-83
2021/05/25 10:44:45;;;;;;;2.88;0.98;;;;;;;;;;5012623;28;20151;-82
2021/05/25 10:47:22;;;;;;;2.60;1.23;;;;;;;;;;5012195;28;20063;-82
2021/05/25 10:50:13;;;;;;;3.33;1.40;;;;;;;;;;5014732;28;20350;-82
2021/05/25 10:52:38;;;;;;;1.98;1.17;;;;;;;;;;5057574;28;20025;-81
2021/05/25 10:55:04;;;;;;;10.52;1.55;;;;;;;;;;5050413;28;20097;-81
2021/05/25 10:57:36;;;;;;;3.83;1.83;;;;;;;;;;5056209;28;20025;-82
2021/05/25 11:00:07;;;;;;;8.00;1.98;;;;;;;;;;5030629;28;20057;-81
2021/05/25 11:02:42;;;;;;;4.30;1.40;;;;;;;;;;5013860;28;20120;-82
2021/05/25 11:05:27;;;;;;;4.85;1.30;;;;;;;;;;5010615;28;20415;-82
2021/05/25 11:07:53;;;;;;;4.43;1.50;;;;;;;;;;5047966;28;20016;-82
2021/05/25 11:10:27;;;;;;;3.85;1.67;;;;;;;;;;5019029;28;20097;-82
2021/05/25 11:13:10;;;;;;;2.10;0.95;;;;;;;;;;5019153;28;20026;-82
2021/05/25 11:15:56;;;;;;;8.38;1.30;;;;;;;;;;5012153;28;20022;-82
2021/05/25 11:18:24;;;;;;;3.72;1.10;;;;;;;;;;5016143;28;20453;-82
2021/05/25 11:23:37;;;;;;;4.00;0.90;;;;;;;;;;5027029;28;20381;-81
2021/05/25 11:26:02;;;;;;;2.30;0.90;;;;;;;;;;5040989;28;20020;-82
2021/05/25 11:28:28;;;;;;;1.70;0.90;;;;;;;;;;5102617;28;20136;-81
2021/05/25 11:30:53;;;;;;;3.30;0.90;;;;;;;;;;5012089;28;20095;-82
2021/05/25 11:33:30;;;;;;;4.00;1.00;;;;;;;;;;5070564;28;20039;-83
2021/05/25 11:35:59;;;;;;;3.92;0.98;;;;;;;;;;5030191;28;20026;-81
2021/05/25 11:38:24;;;;;;;3.97;0.98;;;;;;;;;;5035877;28;20030;-81
2021/05/25 11:40:50;;;;;;;5.75;0.90;;;;;;;;;;5068319;28;20037;-81
2021/05/25 11:43:15;;;;;;;3.33;0.90;;;;;;;;;;5010777;28;20435;-82
2021/05/25 11:45:40;;;;;;;5.25;1.10;;;;;;;;;;5066492;28;20008;-82
2021/05/25 11:48:07;;;;;;;5.68;1.27;;;;;;;;;;5011584;28;20070;-82
2021/05/25 11:50:43;;;;;;;2.70;1.42;;;;;;;;;;5011559;28;20051;-82
2021/05/25 11:53:09;;;;;;;6.07;1.10;;;;;;;;;;5026675;28;20064;-82
2021/05/25 11:55:35;;;;;;;4.30;1.02;;;;;;;;;;5016910;28;20445;-82
2021/05/25 11:58:00;;;;;;;5.32;0.80;;;;;;;;;;5011724;28;20061;-82
2021/05/25 12:00:29;;;;;;;5.93;1.20;;;;;;;;;;5010171;28;20051;-82
2021/05/25 12:02:56;;;;;;;3.20;1.00;;;;;;;;;;5010049;28;20022;-82
2021/05/25 12:05:23;;;;;;;2.17;1.10;;;;;;;;;;5016891;28;20075;-82
2021/05/25 12:07:55;;;;;;;6.95;1.25;;;;;;;;;;5058748;28;20032;-82
2021/05/25 12:10:28;;;;;;;6.32;1.20;;;;;;;;;;5015924;28;20053;-82
2021/05/25 12:13:00;;;;;;;5.95;0.90;;;;;;;;;;5010256;28;20568;-82
2021/05/25 12:15:26;;;;;;;5.88;1.00;;;;;;;;;;5011030;28;20014;-82
2021/05/25 12:17:56;;;;;;;4.78;1.25;;;;;;;;;;5061488;28;20024;-82
2021/05/25 12:20:22;;;;;;;6.60;1.60;;;;;;;;;;5019588;28;20021;-82
2021/05/25 12:22:54;;;;;;;7.40;1.33;;;;;;;;;;5011014;28;20057;-82
2021/05/25 12:25:27;;;;;;;10.97;1.73;;;;;;;;;;5074604;28;20025;-82
2021/05/25 12:27:52;;;;;;;6.60;1.50;;;;;;;;;;5010352;28;20300;-82
2021/05/25 12:30:18;;;;;;;4.88;1.80;;;;;;;;;;5015188;28;20026;-82
2021/05/25 12:32:44;;;;;;;6.25;1.80;;;;;;;;;;5005947;28;20025;-82
2021/05/25 12:35:09;;;;;;;5.63;1.35;;;;;;;;;;5001433;28;20025;-83
2021/05/25 12:37:35;;;;;;;10.35;2.42;;;;;;;;;;4998761;28;20111;-82
2021/05/25 12:40:01;;;;;;;9.30;2.05;;;;;;;;;;5001180;28;20030;-82
2021/05/25 12:42:32;;;;;;;9.00;1.80;;;;;;;;;;5001550;28;20025;-81
2021/05/25 12:45:07;;;;;;;5.82;1.63;;;;;;;;;;5011972;28;20034;-82
2021/05/25 12:47:51;;;;;;;12.80;1.80;;;;;;;;;;5026045;28;20014;-82
2021/05/25 12:50:23;;;;;;;4.40;1.80;;;;;;;;;;5058368;28;20019;-82
2021/05/25 12:53:00;;;;;;;12.38;2.05;;;;;;;;;;5086900;28;20491;-82
2021/05/25 12:55:25;;;;;;;7.82;2.20;;;;;;;;;;5057057;28;20060;-82
2021/05/25 12:57:52;;;;;;;8.45;2.28;;;;;;;;;;5015846;28;20477;-82
2021/05/25 13:00:27;;;;;;;6.40;2.00;;;;;;;;;;5010358;28;20431;-82
2021/05/25 13:02:52;;;;;;;10.02;2.88;;;;;;;;;;5007936;28;20046;-82
2021/05/25 13:05:22;;;;;;;10.40;2.60;;;;;;;;;;5001689;28;20122;-82
2021/05/25 13:07:51;;;;;;;9.38;2.70;;;;;;;;;;5003842;28;20507;-82
2021/05/25 13:10:25;;;;;;;9.40;2.03;;;;;;;;;;5010521;28;20026;-82
2021/05/25 13:12:51;;;;;;;6.93;1.90;;;;;;;;;;5092055;28;20534;-82
2021/05/25 13:15:17;;;;;;;7.30;2.30;;;;;;;;;;5055116;28;20049;-82
2021/05/25 13:17:55;;;;;;;9.55;1.75;;;;;;;;;;5054528;28;20022;-82
2021/05/25 13:20:24;;;;;;;8.18;1.98;;;;;;;;;;5057912;28;20082;-81
2021/05/25 13:22:50;;;;;;;10.07;2.17;;;;;;;;;;5038597;28;20018;-81
2021/05/25 13:25:16;;;;;;;7.38;1.63;;;;;;;;;;4998199;28;20071;-82
2021/05/25 13:27:49;;;;;;;4.93;1.58;;;;;;;;;;5028041;28;20013;-82
2021/05/25 13:30:14;;;;;;;4.63;1.58;;;;;;;;;;5084410;28;20106;-82
2021/05/25 13:32:39;;;;;;;5.72;1.50;;;;;;;;;;5107888;28;20055;-83
2021/05/25 13:35:06;;;;;;;5.22;0.98;;;;;;;;;;5105741;28;20054;-82
2021/05/25 13:37:33;;;;;;;7.85;1.00;;;;;;;;;;5105897;28;20028;-82
2021/05/25 13:39:59;;;;;;;2.15;0.85;;;;;;;;;;5107931;28;20020;-82
2021/05/25 13:42:25;;;;;;;3.00;1.10;;;;;;;;;;5101110;28;20484;-82
2021/05/25 13:44:51;;;;;;;5.68;0.95;;;;;;;;;;5067563;28;20062;-83
2021/05/25 13:47:16;;;;;;;3.22;1.00;;;;;;;;;;5091750;28;20023;-83
2021/05/25 13:49:44;;;;;;;1.83;0.98;;;;;;;;;;5109471;28;20027;-83
2021/05/25 13:52:09;;;;;;;3.90;1.08;;;;;;;;;;5105691;28;20023;-82
2021/05/25 13:54:34;;;;;;;3.70;1.20;;;;;;;;;;5098960;28;20012;-82
2021/05/25 13:57:01;;;;;;;5.28;1.20;;;;;;;;;;5009945;28;20054;-83
2021/05/25 13:59:35;;;;;;;8.10;1.70;;;;;;;;;;5009436;28;20474;-82
2021/05/25 14:02:00;;;;;;;7.95;1.40;;;;;;;;;;5035990;28;20015;-82
2021/05/25 14:04:26;;;;;;;2.72;1.38;;;;;;;;;;5049310;28;20347;-82
2021/05/25 14:06:51;;;;;;;3.92;1.30;;;;;;;;;;5008696;28;20048;-82
2021/05/25 14:09:16;;;;;;;4.05;1.42;;;;;;;;;;5008309;28;20053;-82
2021/05/25 14:11:41;;;;;;;6.32;1.50;;;;;;;;;;5008694;28;20022;-82
2021/05/25 14:14:07;;;;;;;9.13;2.15;;;;;;;;;;5071125;28;20418;-82
2021/05/25 14:16:32;;;;;;;6.57;1.38;;;;;;;;;;5024474;28;20562;-82
2021/05/25 14:18:57;;;;;;;4.57;1.92;;;;;;;;;;5008022;28;20026;-82
2021/05/25 14:21:23;;;;;;;4.95;1.40;;;;;;;;;;5008170;28;20053;-82
2021/05/25 14:23:48;;;;;;;3.28;1.35;;;;;;;;;;5036797;28;20026;-82
2021/05/25 14:26:14;;;;;;;5.05;1.60;;;;;;;;;;5008062;28;20018;-82
2021/05/25 14:28:40;;;;;;;7.13;1.75;;;;;;;;;;5038923;28;20065;-82
2021/05/25 14:31:05;;;;;;;9.18;2.00;;;;;;;;;;5050149;28;20023;-82
2021/05/25 14:33:30;;;;;;;7.13;2.03;;;;;;;;;;5028413;28;20097;-82
2021/05/25 14:35:55;;;;;;;6.18;1.60;;;;;;;;;;5045673;28;20037;-83
2021/05/25 14:38:24;;;;;;;9.82;2.00;;;;;;;;;;5019298;28;20018;-83
2021/05/25 14:40:50;;;;;;;6.20;2.13;;;;;;;;;;5028270;28;20022;-83
2021/05/25 14:43:16;;;;;;;5.65;1.63;;;;;;;;;;5015522;28;20099;-83
2021/05/25 14:45:41;;;;;;;4.32;1.75;;;;;;;;;;5008970;28;20098;-83